Time;durP1;ratioP1;P1;durP2;ratioP2;P2;SDS_P1;SDS_P2;PMS_P1;PMS_P2;Temp;Humidity;BMP_temperature;BMP_pressure;BME280_temperature;BME280_humidity;BME280_pressure;Samples;Min_cycle;Max_cycle;Signal;HPM_P1;HPM_P2
2023/08/09 00:02:28;;;;;;;3.58;1.90;;;;;;;16.88;53.56;99284.22;4482718;32;33734;-84
2023/08/09 00:04:55;;;;;;;4.93;2.17;;;;;;;16.75;53.91;99280.88;4482483;32;34918;-83
2023/08/09 00:07:22;;;;;;;5.05;1.77;;;;;;;16.78;53.84;99286.09;4482957;32;33541;-83
2023/08/09 00:09:50;;;;;;;4.47;1.85;;;;;;;16.76;53.94;99285.22;4482753;32;33908;-84
2023/08/09 00:12:17;;;;;;;5.30;1.85;;;;;;;16.65;54.13;99288.78;4482437;32;34037;-83
2023/08/09 00:14:45;;;;;;;4.53;2.03;;;;;;;16.68;54.23;99280.91;4479736;32;33730;-84
2023/08/09 00:17:13;;;;;;;5.40;1.77;;;;;;;16.94;53.71;99283.28;4480834;32;33557;-83
2023/08/09 00:19:40;;;;;;;5.00;1.95;;;;;;;16.68;54.37;99288.78;4480767;32;34616;-83
2023/08/09 00:22:08;;;;;;;4.50;1.92;;;;;;;16.66;54.56;99293.13;4481540;32;34561;-84
2023/08/09 00:24:36;;;;;;;4.28;1.62;;;;;;;16.58;55.07;99293.22;4481752;32;33743;-84
2023/08/09 00:27:03;;;;;;;4.80;1.90;;;;;;;16.60;55.00;99299.31;4480521;32;34259;-84
2023/08/09 00:29:31;;;;;;;3.78;1.60;;;;;;;16.56;55.24;99297.63;4480311;32;34830;-84
2023/08/09 00:31:59;;;;;;;4.25;1.67;;;;;;;16.52;55.16;99290.69;4480652;32;34911;-83
2023/08/09 00:34:27;;;;;;;3.87;1.80;;;;;;;16.56;54.95;99297.63;4479016;32;33831;-83
2023/08/09 00:36:54;;;;;;;4.78;1.70;;;;;;;16.50;55.12;99293.28;4480853;32;32868;-83
2023/08/09 00:39:22;;;;;;;4.07;1.80;;;;;;;16.49;55.20;99295.94;4481411;32;33183;-84
2023/08/09 00:41:49;;;;;;;4.60;2.05;;;;;;;16.51;55.09;99288.91;4480807;32;34382;-84
2023/08/09 00:44:17;;;;;;;5.18;1.77;;;;;;;16.50;55.16;99293.28;4482255;32;33777;-83
2023/08/09 00:46:45;;;;;;;3.70;1.67;;;;;;;16.45;55.39;99292.47;4481738;32;34136;-83
2023/08/09 00:49:12;;;;;;;6.03;1.90;;;;;;;16.40;55.74;99286.44;4480994;32;33480;-84
2023/08/09 00:51:40;;;;;;;6.35;2.30;;;;;;;16.44;55.71;99284.63;4479415;32;34150;-83
2023/08/09 00:54:07;;;;;;;4.47;1.65;;;;;;;16.41;55.50;99290.75;4480161;32;34600;-83
2023/08/09 00:56:36;;;;;;;3.85;1.80;;;;;;;16.40;55.33;99291.66;4480742;32;34204;-83
2023/08/09 00:59:03;;;;;;;4.22;2.12;;;;;;;16.32;55.55;99288.22;4480312;32;34300;-83
2023/08/09 01:01:31;;;;;;;4.00;2.03;;;;;;;16.33;55.48;99287.34;4479756;32;33963;-83
2023/08/09 01:03:58;;;;;;;4.22;2.22;;;;;;;16.31;55.50;99294.34;4480361;32;33944;-84
2023/08/09 01:06:34;;;;;;;4.18;2.10;;;;;;;16.37;55.31;99296.91;4479062;32;33442;-83
2023/08/09 01:09:08;;;;;;;;;;;;;;;16.49;55.83;99299.41;4480661;32;33927;-84
2023/08/09 01:12:10;;;;;;;4.28;2.05;;;;;;;16.78;54.97;99295.66;4480790;32;34014;-84
2023/08/09 01:14:42;;;;;;;6.43;3.03;;;;;;;16.66;55.25;99291.38;4481193;32;34119;-84
2023/08/09 01:17:14;;;;;;;7.32;3.55;;;;;;;16.53;55.31;99288.03;4479863;32;33308;-83
2023/08/09 01:19:49;;;;;;;7.72;3.20;;;;;;;16.36;55.93;99279.44;4479324;32;33597;-83
2023/08/09 01:22:21;;;;;;;7.03;3.60;;;;;;;16.35;56.19;99282.97;4478069;32;34787;-83
2023/08/09 01:24:49;;;;;;;8.18;3.30;;;;;;;16.27;56.55;99279.53;4480129;32;34082;-83
2023/08/09 01:27:17;;;;;;;5.45;2.67;;;;;;;16.53;56.12;99287.16;4481576;32;33390;-83
2023/08/09 01:29:44;;;;;;;7.20;2.92;;;;;;;16.46;56.42;99281.12;4479963;32;34053;-84
2023/08/09 01:32:13;;;;;;;5.20;2.45;;;;;;;16.28;56.95;99283.87;4481939;32;34432;-83
2023/08/09 01:34:41;;;;;;;4.70;2.40;;;;;;;16.24;56.83;99279.56;4483273;32;33914;-83
2023/08/09 01:37:29;;;;;;;6.65;2.37;;;;;;;16.28;56.48;99276.03;4484034;32;34310;-84
2023/08/09 01:39:58;;;;;;;5.93;2.35;;;;;;;16.38;56.32;99284.69;4482982;32;33452;-84
2023/08/09 01:42:26;;;;;;;6.62;2.72;;;;;;;16.20;56.93;99278.72;4482115;32;34899;-83
2023/08/09 01:44:54;;;;;;;6.35;2.70;;;;;;;16.19;57.17;99282.22;4482348;32;33530;-83
2023/08/09 01:47:22;;;;;;;6.10;2.65;;;;;;;16.14;57.36;99283.13;4482605;32;33554;-83
2023/08/09 01:49:51;;;;;;;6.03;2.47;;;;;;;16.20;57.40;99283.09;4482518;32;33867;-83
2023/08/09 01:52:19;;;;;;;5.68;2.55;;;;;;;16.12;57.46;99284.91;4483731;31;34454;-83
2023/08/09 01:54:46;;;;;;;6.75;2.78;;;;;;;16.14;57.38;99277.91;4483691;32;33950;-84
2023/08/09 01:57:14;;;;;;;7.95;2.87;;;;;;;16.11;57.31;99286.66;4483727;32;34307;-83
2023/08/09 01:59:42;;;;;;;5.65;3.20;;;;;;;16.31;57.04;99276.03;4483265;32;33565;-84
2023/08/09 02:02:11;;;;;;;5.25;2.90;;;;;;;16.20;57.64;99275.25;4482251;32;34251;-84
2023/08/09 02:04:39;;;;;;;4.93;2.70;;;;;;;16.00;58.27;99278.88;4482206;32;34426;-83
2023/08/09 02:07:07;;;;;;;4.97;3.30;;;;;;;16.07;58.20;99282.31;4482291;32;34276;-83
2023/08/09 02:09:35;;;;;;;5.95;3.62;;;;;;;16.04;58.39;99277.13;4483776;32;33907;-84
2023/08/09 02:12:22;;;;;;;7.75;3.50;;;;;;;16.03;58.74;99281.47;4483450;32;34020;-84
2023/08/09 02:14:49;;;;;;;6.82;3.75;;;;;;;16.09;59.30;99284.91;4483681;32;33498;-83
2023/08/09 02:17:17;;;;;;;8.00;4.62;;;;;;;16.14;58.52;99277.91;4483295;32;33454;-84
2023/08/09 02:19:45;;;;;;;10.02;4.78;;;;;;;16.04;58.67;99283.22;4483213;32;34054;-84
2023/08/09 02:22:12;;;;;;;13.30;5.30;;;;;;;16.20;58.22;99283.94;4483811;32;34167;-83
2023/08/09 02:24:40;;;;;;;8.80;5.70;;;;;;;16.22;58.11;99297.03;4483717;32;33714;-84
2023/08/09 02:27:09;;;;;;;12.05;6.87;;;;;;;16.27;57.75;99288.25;4482226;32;34232;-84
2023/08/09 02:29:37;;;;;;;13.62;5.80;;;;;;;16.02;58.95;99298.06;4483632;32;34170;-83
2023/08/09 02:32:05;;;;;;;10.63;5.95;;;;;;;16.12;59.06;99303.22;4483292;32;34583;-84
2023/08/09 02:34:32;;;;;;;11.48;5.97;;;;;;;16.10;59.30;99300.63;4483985;32;34370;-84
2023/08/09 02:37:00;;;;;;;14.70;6.15;;;;;;;16.20;58.84;99304.00;4483359;32;33570;-83
2023/08/09 02:39:29;;;;;;;10.20;5.45;;;;;;;16.19;58.90;99307.53;4482175;32;34219;-83
2023/08/09 02:41:56;;;;;;;10.05;5.65;;;;;;;16.23;58.20;99306.63;4479483;32;34503;-83
2023/08/09 02:44:24;;;;;;;11.20;6.05;;;;;;;16.10;58.48;99304.94;4480405;32;33316;-84
2023/08/09 02:46:51;;;;;;;10.48;6.20;;;;;;;16.09;58.63;99303.22;4481660;32;34083;-84
2023/08/09 02:49:19;;;;;;;11.15;6.10;;;;;;;16.14;59.02;99314.50;4481893;32;34310;-84
2023/08/09 02:51:47;;;;;;;12.25;6.60;;;;;;;16.02;59.51;99312.84;4481882;32;34109;-84
2023/08/09 02:54:14;;;;;;;9.05;5.68;;;;;;;16.11;59.41;99318.03;4481709;32;34428;-84
2023/08/09 02:56:42;;;;;;;11.05;5.70;;;;;;;16.04;59.55;99308.50;4482134;32;33038;-84
2023/08/09 02:59:10;;;;;;;9.07;5.78;;;;;;;16.03;59.67;99312.88;4481196;32;33826;-82
2023/08/09 03:01:38;;;;;;;9.90;5.43;;;;;;;16.07;59.55;99318.09;4481404;32;34141;-84
2023/08/09 03:04:06;;;;;;;9.73;4.80;;;;;;;16.17;59.43;99315.34;4476597;32;33942;-83
2023/08/09 03:06:33;;;;;;;8.20;4.62;;;;;;;16.05;59.99;99312.84;4483775;32;32886;-83
2023/08/09 03:09:02;;;;;;;10.27;4.70;;;;;;;16.00;60.19;99309.41;4483213;32;33971;-84
2023/08/09 03:11:30;;;;;;;8.23;4.50;;;;;;;15.92;60.98;99327.75;4482219;32;34026;-83
2023/08/09 03:13:58;;;;;;;9.00;4.45;;;;;;;15.94;61.04;99328.59;4483388;32;34792;-83
2023/08/09 03:16:25;;;;;;;8.13;4.18;;;;;;;15.95;61.06;99325.13;4483586;32;33410;-84
2023/08/09 03:18:53;;;;;;;7.55;4.55;;;;;;;16.03;60.84;99328.56;4483011;32;34767;-84
2023/08/09 03:21:22;;;;;;;7.35;4.32;;;;;;;15.95;61.02;99321.66;4482260;32;34265;-83
2023/08/09 03:23:49;;;;;;;8.05;4.62;;;;;;;15.86;61.50;99325.16;4479891;32;33206;-83
2023/08/09 03:26:17;;;;;;;7.55;4.35;;;;;;;15.93;61.58;99324.25;4481868;32;33220;-83
2023/08/09 03:28:45;;;;;;;8.15;4.30;;;;;;;15.82;61.74;99324.31;4481791;32;34757;-83
2023/08/09 03:31:13;;;;;;;10.05;5.32;;;;;;;15.88;61.76;99318.19;4483093;32;34925;-84
2023/08/09 03:33:40;;;;;;;8.63;5.00;;;;;;;15.86;61.76;99322.56;4483147;32;34310;-83
2023/08/09 03:36:09;;;;;;;10.40;4.62;;;;;;;15.84;61.93;99319.09;4483414;32;33593;-83
2023/08/09 03:38:36;;;;;;;8.98;4.53;;;;;;;15.85;61.86;99323.44;4482969;32;33914;-83
2023/08/09 03:41:04;;;;;;;7.22;4.20;;;;;;;15.90;61.49;99324.25;4483118;32;34104;-84
2023/08/09 03:43:31;;;;;;;9.32;4.60;;;;;;;15.84;61.70;99326.94;4483259;32;33914;-83
2023/08/09 03:45:59;;;;;;;9.70;4.60;;;;;;;16.04;61.05;99322.44;4482692;32;33570;-84
2023/08/09 03:48:27;;;;;;;8.50;4.65;;;;;;;16.04;61.02;99325.06;4482889;32;34527;-83
2023/08/09 03:50:54;;;;;;;7.93;4.07;;;;;;;15.87;61.68;99329.50;4482597;32;34993;-84
2023/08/09 03:53:22;;;;;;;7.72;4.40;;;;;;;15.99;61.69;99325.97;4482849;32;34313;-83
2023/08/09 03:55:49;;;;;;;7.35;4.05;;;;;;;15.95;61.91;99330.34;4483000;32;34036;-84
2023/08/09 03:58:18;;;;;;;8.05;4.40;;;;;;;15.95;61.80;99327.75;4482793;32;34064;-84
2023/08/09 04:00:45;;;;;;;7.80;3.70;;;;;;;15.88;62.42;99323.44;4482768;32;34414;-84
2023/08/09 04:03:13;;;;;;;7.68;4.03;;;;;;;15.88;62.66;99322.56;4481420;32;34191;-83
2023/08/09 04:05:41;;;;;;;6.93;3.53;;;;;;;15.96;62.42;99326.84;4482885;32;33535;-83
2023/08/09 04:08:09;;;;;;;7.30;4.03;;;;;;;15.98;62.53;99325.06;4482469;32;33678;-83
2023/08/09 04:10:36;;;;;;;6.80;3.47;;;;;;;16.09;62.37;99334.59;4482622;32;34252;-84
2023/08/09 04:13:04;;;;;;;7.53;3.30;;;;;;;16.18;62.33;99343.28;4482855;32;33715;-84
2023/08/09 04:15:31;;;;;;;5.78;3.33;;;;;;;16.23;62.55;99340.63;4482796;32;33060;-83
2023/08/09 04:17:59;;;;;;;7.60;3.83;;;;;;;15.98;64.44;99345.13;4482642;32;34873;-83
2023/08/09 04:20:27;;;;;;;8.63;4.30;;;;;;;15.73;66.06;99347.03;4482516;32;34051;-83
2023/08/09 04:23:00;;;;;;;8.18;5.30;;;;;;;15.68;66.01;99340.94;4482808;32;34730;-84
2023/08/09 04:25:28;;;;;;;9.30;5.90;;;;;;;16.35;63.34;99339.66;4482490;32;34233;-84
2023/08/09 04:27:56;;;;;;;10.13;5.30;;;;;;;16.38;63.61;99348.34;4480768;32;34933;-84
2023/08/09 04:30:24;;;;;;;10.43;6.72;;;;;;;16.40;63.72;99343.09;4482867;32;33711;-84
2023/08/09 04:32:55;;;;;;;10.57;7.75;;;;;;;16.41;64.34;99339.63;4482152;32;32402;-84
2023/08/09 04:35:23;;;;;;;14.95;9.80;;;;;;;16.51;63.94;99329.03;4481351;32;34320;-84
2023/08/09 04:37:50;;;;;;;14.90;8.73;;;;;;;17.28;62.08;99323.06;4482371;32;34804;-83
2023/08/09 04:40:18;;;;;;;11.90;7.60;;;;;;;17.55;60.63;99321.84;4482145;32;34105;-84
2023/08/09 04:42:47;;;;;;;12.88;7.62;;;;;;;18.24;58.85;99320.88;4482099;32;34156;-84
2023/08/09 04:45:15;;;;;;;10.05;7.10;;;;;;;18.51;57.40;99316.94;4482217;32;33865;-84
2023/08/09 04:47:43;;;;;;;9.23;5.70;;;;;;;18.67;56.86;99315.75;4480615;32;34197;-84
2023/08/09 04:50:12;;;;;;;6.85;3.90;;;;;;;18.59;57.57;99317.66;4482073;32;34123;-84
2023/08/09 04:52:41;;;;;;;7.25;3.83;;;;;;;18.96;56.89;99315.28;4482149;32;33664;-84
2023/08/09 04:55:11;;;;;;;7.87;3.53;;;;;;;18.81;56.86;99331.31;4480845;32;33183;-84
2023/08/09 04:57:38;;;;;;;5.65;2.47;;;;;;;18.66;57.39;99324.53;4481728;32;34645;-84
2023/08/09 05:00:08;;;;;;;6.00;2.17;;;;;;;18.56;57.90;99332.59;4481890;32;35087;-84
2023/08/09 05:02:37;;;;;;;7.53;2.00;;;;;;;18.49;58.02;99331.88;4483842;32;34090;-84
2023/08/09 05:05:06;;;;;;;6.12;1.95;;;;;;;18.42;58.38;99336.34;4484294;32;33741;-84
2023/08/09 05:07:34;;;;;;;3.75;1.45;;;;;;;18.72;58.08;99326.25;4482774;32;34890;-84
2023/08/09 05:10:03;;;;;;;3.75;1.83;;;;;;;18.96;57.41;99323.16;4483798;32;33648;-84
2023/08/09 05:12:31;;;;;;;6.62;2.10;;;;;;;19.02;57.02;99318.72;4483051;32;34649;-84
2023/08/09 05:14:58;;;;;;;4.03;1.87;;;;;;;19.13;57.39;99325.47;4484219;32;33717;-84
2023/08/09 05:17:26;;;;;;;4.82;2.00;;;;;;;19.66;57.01;99330.53;4484032;32;33553;-84
2023/08/09 05:19:53;;;;;;;4.82;2.40;;;;;;;20.00;55.79;99330.69;4484195;32;34018;-84
2023/08/09 05:22:21;;;;;;;5.50;2.10;;;;;;;20.01;54.89;99335.03;4484267;32;33595;-84
2023/08/09 05:24:48;;;;;;;4.97;2.10;;;;;;;19.92;55.38;99338.72;4483529;32;33528;-84
2023/08/09 05:27:16;;;;;;;9.07;3.58;;;;;;;19.88;55.80;99347.59;4483922;32;33909;-84
2023/08/09 05:29:43;;;;;;;8.73;4.28;;;;;;;19.55;56.77;99349.19;4484054;32;34010;-84
2023/08/09 05:32:11;;;;;;;8.02;4.28;;;;;;;19.01;57.77;99345.84;4483968;32;33887;-84
2023/08/09 05:34:39;;;;;;;8.45;4.37;;;;;;;19.01;57.51;99340.59;4482038;32;34013;-84
2023/08/09 05:37:06;;;;;;;10.77;4.75;;;;;;;19.18;57.21;99339.38;4483710;32;34374;-84
2023/08/09 05:39:34;;;;;;;9.93;4.03;;;;;;;19.26;57.29;99341.00;4483746;32;34233;-84
2023/08/09 05:42:03;;;;;;;9.52;4.28;;;;;;;19.45;56.45;99327.44;4483744;32;34147;-84
2023/08/09 05:44:30;;;;;;;7.55;4.53;;;;;;;19.58;55.76;99329.81;4483722;32;33717;-84
2023/08/09 05:46:58;;;;;;;7.40;3.75;;;;;;;19.52;55.96;99329.97;4483826;32;34639;-84
2023/08/09 05:49:25;;;;;;;9.32;3.90;;;;;;;19.31;56.78;99336.50;4483996;32;34897;-85
2023/08/09 05:51:53;;;;;;;7.95;4.00;;;;;;;19.49;56.96;99333.50;4484011;32;34015;-85
2023/08/09 05:54:21;;;;;;;8.40;3.25;;;;;;;19.83;57.19;99344.22;4483559;32;34293;-84
2023/08/09 05:56:49;;;;;;;8.02;3.33;;;;;;;19.97;56.44;99345.69;4483858;32;34704;-84
2023/08/09 05:59:16;;;;;;;6.70;3.42;;;;;;;20.41;56.05;99345.47;4484161;32;34245;-84
2023/08/09 06:01:44;;;;;;;4.70;2.03;;;;;;;20.31;55.92;99345.75;4483950;32;34158;-84
2023/08/09 06:04:12;;;;;;;5.75;1.77;;;;;;;20.61;57.06;99341.53;4482711;32;32919;-84
2023/08/09 06:06:39;;;;;;;4.60;2.00;;;;;;;20.65;55.72;99338.78;4481568;32;33642;-84
2023/08/09 06:09:09;;;;;;;4.72;1.67;;;;;;;20.61;55.57;99331.00;4483979;32;34178;-85
2023/08/09 06:11:36;;;;;;;4.15;1.33;;;;;;;20.96;55.34;99327.44;4483964;32;33975;-84
2023/08/09 06:14:04;;;;;;;3.33;1.20;;;;;;;20.65;53.29;99330.03;4482535;32;34055;-84
2023/08/09 06:16:34;;;;;;;5.45;1.87;;;;;;;20.82;51.50;99322.53;4482300;32;33890;-84
2023/08/09 06:19:02;;;;;;;4.50;1.45;;;;;;;20.90;51.61;99320.53;4481311;32;33841;-84
2023/08/09 06:21:29;;;;;;;5.70;1.48;;;;;;;21.10;50.92;99320.03;4483582;32;34903;-85
2023/08/09 06:23:57;;;;;;;6.20;1.45;;;;;;;21.27;49.84;99324.81;4483692;32;34038;-85
2023/08/09 06:26:24;;;;;;;3.90;1.25;;;;;;;21.24;50.48;99324.91;4483709;32;33484;-84
2023/08/09 06:28:52;;;;;;;4.90;1.42;;;;;;;21.38;49.30;99327.19;4481771;32;35110;-82
2023/08/09 06:31:19;;;;;;;3.90;1.27;;;;;;;20.95;49.41;99322.19;4483228;32;33439;-84
2023/08/09 06:33:47;;;;;;;4.53;1.52;;;;;;;21.23;49.37;99323.19;4482833;31;33478;-84
2023/08/09 06:36:14;;;;;;;3.40;1.30;;;;;;;21.03;49.33;99321.09;4499115;31;33971;-85
2023/08/09 06:38:42;;;;;;;4.80;1.25;;;;;;;21.05;49.85;99321.03;4487575;31;34972;-84
2023/08/09 06:41:09;;;;;;;3.70;1.52;;;;;;;21.17;50.36;99318.06;4483594;31;34001;-85
2023/08/09 06:43:37;;;;;;;5.00;1.95;;;;;;;21.36;48.98;99321.94;4491290;31;33536;-86
2023/08/09 06:46:05;;;;;;;5.62;2.22;;;;;;;21.68;48.37;99324.56;4483613;32;33603;-88
2023/08/09 06:48:33;;;;;;;7.28;2.55;;;;;;;21.77;48.80;99326.91;4482909;32;35058;-81
2023/08/09 06:51:00;;;;;;;6.60;2.97;;;;;;;21.75;49.25;99331.41;4483280;32;33825;-84
2023/08/09 06:53:28;;;;;;;6.07;2.53;;;;;;;21.78;48.38;99329.53;4483687;32;33213;-83
2023/08/09 06:55:56;;;;;;;8.23;2.45;;;;;;;22.06;49.36;99331.31;4482120;32;33939;-83
2023/08/09 06:58:24;;;;;;;5.65;2.37;;;;;;;22.17;49.72;99333.66;4483434;32;34832;-83
2023/08/09 07:00:51;;;;;;;7.62;2.35;;;;;;;22.51;47.49;99322.84;4483235;32;34696;-85
2023/08/09 07:03:20;;;;;;;10.48;2.65;;;;;;;22.37;48.04;99335.63;4483443;32;32601;-86
2023/08/09 07:05:47;;;;;;;4.80;2.20;;;;;;;22.37;46.71;99328.56;4483376;32;33764;-85
2023/08/09 07:08:15;;;;;;;9.43;2.95;;;;;;;22.07;47.90;99331.25;4483746;32;33774;-81
2023/08/09 07:10:43;;;;;;;6.20;2.35;;;;;;;22.30;47.92;99338.47;4483421;32;34699;-86
2023/08/09 07:13:10;;;;;;;6.12;2.65;;;;;;;22.65;48.56;99328.50;4483173;32;33314;-86
2023/08/09 07:15:39;;;;;;;6.75;2.35;;;;;;;23.01;47.16;99328.19;4483467;32;34664;-83
2023/08/09 07:18:07;;;;;;;8.05;3.05;;;;;;;22.85;46.98;99332.28;4482345;32;34049;-85
2023/08/09 07:20:35;;;;;;;6.55;2.75;;;;;;;23.08;47.19;99324.41;4482810;32;34196;-84
2023/08/09 07:23:02;;;;;;;6.60;2.53;;;;;;;22.74;48.13;99325.56;4482901;32;33555;-85
2023/08/09 07:25:30;;;;;;;5.25;2.30;;;;;;;23.09;47.36;99323.50;4478091;32;34165;-84
2023/08/09 07:28:00;;;;;;;5.35;2.25;;;;;;;22.95;47.68;99317.81;4467181;32;35057;-86
2023/08/09 07:30:28;;;;;;;6.28;1.83;;;;;;;22.96;48.28;99320.44;4467544;32;33667;-83
2023/08/09 07:32:56;;;;;;;7.97;2.60;;;;;;;23.18;46.83;99320.50;4467077;32;34333;-83
2023/08/09 07:35:24;;;;;;;6.72;2.47;;;;;;;23.51;46.88;99328.13;4468783;32;34073;-84
2023/08/09 07:37:51;;;;;;;3.83;2.20;;;;;;;23.51;46.35;99323.69;4482841;32;34191;-84
2023/08/09 07:40:20;;;;;;;7.35;2.20;;;;;;;23.37;47.03;99325.13;4482120;32;33768;-85
2023/08/09 07:42:47;;;;;;;8.18;2.53;;;;;;;23.50;45.99;99326.41;4482974;32;33450;-84
2023/08/09 07:45:15;;;;;;;5.93;2.08;;;;;;;23.74;45.91;99324.63;4482356;32;34661;-85
2023/08/09 07:47:43;;;;;;;6.65;2.33;;;;;;;23.67;44.83;99329.31;4482865;32;34577;-85
2023/08/09 07:50:11;;;;;;;8.85;2.87;;;;;;;23.68;45.65;99319.59;4482323;32;34859;-84
2023/08/09 07:52:38;;;;;;;5.25;2.42;;;;;;;23.35;45.79;99325.19;4482724;32;33209;-86
2023/08/09 07:55:06;;;;;;;12.13;2.22;;;;;;;23.44;45.86;99322.19;4482245;32;34005;-87
2023/08/09 07:57:33;;;;;;;5.68;2.30;;;;;;;23.25;45.19;99318.50;4482442;32;34021;-84
2023/08/09 08:00:24;;;;;;;7.37;2.17;;;;;;;22.99;45.87;99324.72;4482664;32;34032;-83
2023/08/09 08:05:47;;;;;;;;;;;;;;;23.37;46.96;99320.69;4486618;31;33873;-85
2023/08/09 08:08:17;;;;;;;7.25;2.12;;;;;;;23.47;47.02;99323.88;4486558;31;34425;-85
2023/08/09 08:10:44;;;;;;;5.68;2.25;;;;;;;23.31;46.14;99328.88;4482427;32;34131;-84
2023/08/09 08:13:12;;;;;;;6.35;2.10;;;;;;;22.83;48.04;99325.22;4482456;32;33740;-85
2023/08/09 08:15:40;;;;;;;5.78;1.87;;;;;;;22.47;49.47;99322.09;4482435;32;34658;-83
2023/08/09 08:18:08;;;;;;;7.87;2.20;;;;;;;22.88;48.92;99327.75;4482213;32;33754;-82
2023/08/09 08:20:35;;;;;;;4.40;1.62;;;;;;;22.93;48.70;99325.81;4482344;32;34015;-86
2023/08/09 08:23:06;;;;;;;3.97;1.80;;;;;;;23.20;46.76;99329.25;4481994;32;33559;-84
2023/08/09 08:25:35;;;;;;;9.23;2.08;;;;;;;23.22;46.68;99332.72;4482426;32;32532;-86
2023/08/09 08:28:02;;;;;;;4.55;1.62;;;;;;;23.07;46.39;99328.00;4482734;32;34179;-84
2023/08/09 08:30:31;;;;;;;7.62;2.33;;;;;;;22.96;47.88;99330.16;4482564;32;33969;-85
2023/08/09 08:32:59;;;;;;;4.80;2.15;;;;;;;23.19;47.40;99332.84;4481699;32;34101;-85
2023/08/09 08:35:33;;;;;;;7.55;1.83;;;;;;;23.10;46.89;99327.84;4481664;32;33526;-84
2023/08/09 08:38:01;;;;;;;5.53;1.58;;;;;;;23.14;48.00;99334.75;4484053;32;35016;-84
2023/08/09 08:40:31;;;;;;;4.65;1.70;;;;;;;23.17;48.75;99323.22;4483628;32;33802;-83
2023/08/09 08:43:01;;;;;;;4.12;2.00;;;;;;;23.23;47.88;99323.00;4481940;32;33808;-83
2023/08/09 08:45:31;;;;;;;4.07;2.03;;;;;;;22.87;47.92;99330.41;4483100;32;34883;-85
2023/08/09 08:47:59;;;;;;;4.62;1.75;;;;;;;23.03;48.16;99321.94;4482626;32;35359;-85
2023/08/09 08:50:28;;;;;;;4.12;1.50;;;;;;;23.12;48.06;99323.37;4498273;31;33533;-83
2023/08/09 08:52:56;;;;;;;4.97;1.90;;;;;;;23.43;48.85;99332.84;4500042;31;33421;-86
2023/08/09 08:55:23;;;;;;;4.30;1.90;;;;;;;23.73;46.13;99331.72;4499679;31;33950;-83
2023/08/09 08:57:52;;;;;;;4.00;1.85;;;;;;;23.58;46.31;99326.12;4498670;31;34297;-83
2023/08/09 09:00:20;;;;;;;5.25;1.80;;;;;;;23.65;47.70;99331.13;4486395;31;34217;-86
2023/08/09 09:02:55;;;;;;;3.62;1.70;;;;;;;23.08;47.21;99316.50;4483667;32;33620;-85
2023/08/09 09:05:23;;;;;;;4.28;1.62;;;;;;;22.93;47.54;99311.75;4483649;32;34744;-87
2023/08/09 09:07:51;;;;;;;6.07;1.83;;;;;;;23.23;47.35;99321.22;4484135;32;34121;-86
2023/08/09 09:10:20;;;;;;;5.03;2.40;;;;;;;23.02;46.81;99325.50;4484477;32;33815;-87
2023/08/09 09:13:01;;;;;;;3.70;1.65;;;;;;;23.30;46.62;99324.50;4481393;31;33524;-88
2023/08/09 09:15:29;;;;;;;4.97;1.95;;;;;;;23.16;51.11;99322.34;4479644;32;33628;-88
2023/08/09 09:17:56;;;;;;;3.83;1.60;;;;;;;23.14;47.11;99324.19;4483303;32;33784;-85
2023/08/09 09:20:29;;;;;;;6.20;1.77;;;;;;;23.18;48.02;99320.50;4484230;32;34601;-85
2023/08/09 09:22:59;;;;;;;4.40;1.50;;;;;;;23.19;48.92;99324.91;4484004;32;32962;-85
2023/08/09 09:25:27;;;;;;;4.15;1.62;;;;;;;22.94;49.03;99319.59;4484257;32;33925;-84
2023/08/09 09:27:55;;;;;;;6.45;1.65;;;;;;;23.03;48.91;99316.66;4484231;32;34609;-84
2023/08/09 09:30:24;;;;;;;4.07;1.55;;;;;;;23.22;48.34;99318.62;4483442;32;34693;-83
2023/08/09 09:32:57;;;;;;;7.03;1.60;;;;;;;23.21;48.67;99317.75;4483568;32;33468;-82
2023/08/09 09:35:27;;;;;;;4.40;1.73;;;;;;;23.28;48.00;99319.25;4482561;32;33612;-82
2023/08/09 09:37:55;;;;;;;3.28;1.30;;;;;;;23.39;46.72;99315.37;4484939;31;35076;-82
2023/08/09 09:40:25;;;;;;;2.35;0.90;;;;;;;23.60;46.22;99313.69;4484696;31;34281;-82
2023/08/09 09:42:54;;;;;;;4.95;1.02;;;;;;;23.68;46.34;99315.16;4482676;32;34217;-85
2023/08/09 09:45:23;;;;;;;2.20;0.73;;;;;;;23.74;45.96;99314.91;4483487;32;33779;-81
2023/08/09 09:47:52;;;;;;;3.50;1.00;;;;;;;24.04;44.41;99314.63;4483813;32;33730;-83
2023/08/09 09:50:25;;;;;;;3.62;1.15;;;;;;;24.12;44.08;99309.03;4482746;32;33642;-85
2023/08/09 09:52:53;;;;;;;2.85;1.23;;;;;;;24.22;43.58;99316.53;4483940;32;33343;-84
2023/08/09 09:55:28;;;;;;;2.97;1.00;;;;;;;24.36;41.70;99299.22;4482483;32;34064;-81
2023/08/09 09:57:57;;;;;;;3.03;0.90;;;;;;;24.62;41.71;99299.00;4482542;32;33643;-83
2023/08/09 10:00:31;;;;;;;3.25;0.90;;;;;;;24.47;42.23;99302.31;4482029;32;34959;-83
2023/08/09 10:03:01;;;;;;;4.28;0.98;;;;;;;24.60;40.47;99300.87;4484011;32;34069;-80
2023/08/09 10:05:40;;;;;;;2.15;0.93;;;;;;;24.23;42.24;99299.72;4481946;32;33881;-84
2023/08/09 10:08:11;;;;;;;2.20;0.70;;;;;;;24.13;41.10;99294.84;4481912;31;33922;-84
2023/08/09 10:10:43;;;;;;;4.00;0.90;;;;;;;24.12;41.53;99298.44;4483837;32;34477;-86
2023/08/09 10:13:17;;;;;;;2.92;0.85;;;;;;;24.13;42.42;99297.50;4482075;32;33541;-83
2023/08/09 10:15:48;;;;;;;2.12;0.73;;;;;;;24.49;41.64;99287.22;4482530;32;34715;-84
2023/08/09 10:18:20;;;;;;;3.15;0.90;;;;;;;24.49;41.11;99281.91;4482445;32;34227;-83
2023/08/09 10:20:55;;;;;;;3.85;0.77;;;;;;;24.44;41.53;99278.59;4482552;32;33435;-86
2023/08/09 10:23:25;;;;;;;3.03;0.90;;;;;;;24.58;41.82;99284.16;4482570;32;33159;-85
2023/08/09 10:25:54;;;;;;;3.15;0.80;;;;;;;24.48;41.74;99280.19;4469214;32;34207;-85
2023/08/09 10:28:45;;;;;;;5.03;1.58;;;;;;;24.41;40.94;99290.19;4482324;32;34166;-84
2023/08/09 10:31:13;;;;;;;4.72;0.88;;;;;;;24.37;41.04;99283.25;4483689;32;34587;-84
2023/08/09 10:34:08;;;;;;;2.03;0.70;;;;;;;24.23;42.70;99286.47;4483716;32;34350;-85
2023/08/09 10:36:35;;;;;;;3.20;0.93;;;;;;;24.28;41.09;99284.53;4485577;31;33969;-85
2023/08/09 10:39:14;;;;;;;2.42;0.68;;;;;;;24.22;40.85;99278.59;4489302;31;34250;-83
2023/08/09 10:42:01;;;;;;;2.20;0.62;;;;;;;24.51;41.46;99275.63;4483223;32;33428;-83
2023/08/09 10:44:37;;;;;;;2.30;0.90;;;;;;;24.23;41.71;99288.25;4483423;32;33455;-83
2023/08/09 10:47:12;;;;;;;1.77;0.70;;;;;;;24.28;43.24;99287.16;4483477;32;34025;-85
2023/08/09 10:49:55;;;;;;;3.03;0.70;;;;;;;24.43;41.71;99279.50;4482395;32;34067;-84
2023/08/09 10:52:34;;;;;;;2.50;0.70;;;;;;;24.47;41.74;99283.75;4466745;32;33588;-83
2023/08/09 10:55:10;;;;;;;3.65;0.73;;;;;;;24.63;40.52;99274.25;4465918;32;33219;-84
2023/08/09 10:57:43;;;;;;;5.87;1.00;;;;;;;24.51;39.51;99282.72;4467831;32;33424;-85
2023/08/09 11:00:14;;;;;;;2.62;0.85;;;;;;;24.71;39.94;99277.41;4470039;32;34776;-83
2023/08/09 11:02:46;;;;;;;1.37;0.60;;;;;;;24.34;40.09;99283.38;4481950;32;33653;-83
2023/08/09 11:05:14;;;;;;;1.45;0.80;;;;;;;24.52;41.12;99280.00;4482931;32;34201;-83
2023/08/09 11:07:46;;;;;;;2.03;0.82;;;;;;;24.34;41.65;99285.19;4479181;32;33726;-84
2023/08/09 11:10:15;;;;;;;1.95;0.80;;;;;;;24.20;40.12;99273.34;4482136;32;33926;-83
2023/08/09 11:12:44;;;;;;;3.58;0.88;;;;;;;24.41;39.06;99276.09;4485541;31;33456;-83
2023/08/09 11:15:12;;;;;;;2.35;0.70;;;;;;;24.42;39.41;99272.50;4490663;31;34152;-83
2023/08/09 11:17:49;;;;;;;2.53;0.80;;;;;;;24.36;39.69;99280.66;4483184;32;34611;-82
2023/08/09 11:20:19;;;;;;;2.95;0.90;;;;;;;24.13;40.47;99269.25;4481745;32;33695;-83
2023/08/09 11:22:57;;;;;;;3.70;0.90;;;;;;;24.32;40.64;99271.13;4482958;32;33839;-83
2023/08/09 11:25:27;;;;;;;3.22;0.88;;;;;;;24.28;40.60;99276.56;4482589;32;34222;-83
2023/08/09 11:27:56;;;;;;;2.53;0.90;;;;;;;24.11;41.23;99275.53;4481678;32;33919;-84
2023/08/09 11:30:25;;;;;;;2.55;0.80;;;;;;;24.36;40.39;99268.28;4481952;32;33823;-83
2023/08/09 11:32:58;;;;;;;1.60;0.50;;;;;;;24.34;39.55;99277.22;4482583;32;34079;-82
2023/08/09 11:35:31;;;;;;;2.78;0.70;;;;;;;24.44;39.92;99278.59;4482949;31;32540;-82
2023/08/09 11:37:59;;;;;;;2.90;0.70;;;;;;;24.31;41.66;99272.06;4472150;31;34146;-83
2023/08/09 11:40:27;;;;;;;2.42;0.80;;;;;;;24.24;40.90;99266.12;4485483;31;33587;-83
2023/08/09 11:43:00;;;;;;;2.45;0.90;;;;;;;24.35;40.75;99268.34;4497874;31;33920;-83
2023/08/09 11:45:28;;;;;;;3.40;0.70;;;;;;;24.28;39.66;99270.37;4495575;31;33055;-83
2023/08/09 11:47:55;;;;;;;1.85;0.70;;;;;;;24.15;38.82;99266.53;4482622;32;33623;-84